M/T Azra S — TCPN3 — position and weather

sailwx.info

Track history (hours):
 
Tides and Currents Weather Stations Pressure Air Temp Water Temp Dewpoint Dewpoint Depression Visibility Wind Speed Wind Dir Waves Ship Positions

M/T Azra S

Last reported at 2017-Dec-11 16:59 UTC. Time now 2017-Dec-13 11:27 UTC.
Position N 43°24' E 004°55'.

Length 105 m; draft 6.7 m.

Type: Tanker. MMSI: 271000898.

Date/timePositionNaut miles runAvg speedWind from/ knotsBaromVisibWave heightAir tempDewpointWater temp
2017-Dec-11 16:59N 43°24' E 004°55'0 0.1
2017-Dec-11 16:29N 43°24' E 004°55'0 0.0
2017-Dec-11 15:59N 43°24' E 004°55'0 0.2
2017-Dec-11 15:29N 43°24' E 004°55'0 0.2
2017-Dec-11 15:00N 43°24' E 004°55'0 0.0
2017-Dec-11 14:30N 43°24' E 004°55'0 0.1
2017-Dec-11 14:00N 43°24' E 004°55'0 0.1
2017-Dec-11 13:26N 43°24' E 004°55'0 0.0
2017-Dec-11 12:54N 43°24' E 004°55'0 0.0
2017-Dec-11 12:30N 43°24' E 004°55'0 0.0
2017-Dec-11 12:00N 43°24' E 004°55'0 0.0
2017-Dec-11 11:29N 43°24' E 004°55'0 0.0
2017-Dec-11 10:59N 43°24' E 004°55'0 0.1
2017-Dec-11 10:30N 43°24' E 004°55'0 0.0
2017-Dec-11 09:59N 43°24' E 004°55'0 0.1
2017-Dec-11 09:24N 43°24' E 004°55'0 0.0
2017-Dec-11 09:00N 43°24' E 004°55'0 0.0
2017-Dec-11 08:29N 43°24' E 004°55'0 0.0
2017-Dec-11 08:00N 43°24' E 004°55'0 0.0
2017-Dec-11 07:20N 43°24' E 004°55'0 0.0
2017-Dec-11 07:00N 43°24' E 004°55'0 0.0
2017-Dec-11 06:30N 43°24' E 004°55'0 0.0
2017-Dec-11 05:59N 43°24' E 004°55'0 0.0
2017-Dec-11 05:30N 43°24' E 004°55'0 0.0
2017-Dec-11 05:00N 43°24' E 004°55'0 0.0
2017-Dec-11 04:30N 43°24' E 004°55'0 0.0
2017-Dec-11 04:00N 43°24' E 004°55'0 0.0
2017-Dec-11 03:30N 43°24' E 004°55'0 0.0
2017-Dec-11 02:57N 43°24' E 004°55'0 0.0
2017-Dec-11 02:29N 43°24' E 004°55'0 0.0
2017-Dec-11 01:57N 43°24' E 004°55'0 0.2
2017-Dec-11 01:30N 43°24' E 004°55'2 3.5
2017-Dec-11 01:00N 43°23' E 004°57'3 6.5
2017-Dec-11 00:30N 43°20' E 004°59'1 2.4
2017-Dec-11 00:00N 43°21' E 004°58'4 7.3
2017-Dec-10 23:30N 43°24' E 004°54'1 0.9
2017-Dec-10 22:09N 43°25' E 004°53'0 0.0
2017-Dec-10 21:51N 43°25' E 004°53'0 0.0
2017-Dec-10 21:27N 43°25' E 004°53'0 0.0
2017-Dec-10 20:58N 43°25' E 004°53'0 0.0
2017-Dec-10 20:27N 43°25' E 004°53'0 0.0
2017-Dec-10 19:51N 43°25' E 004°53'0 0.0
2017-Dec-10 19:27N 43°25' E 004°53'0 0.0
2017-Dec-10 18:42N 43°25' E 004°53'0 0.0
2017-Dec-10 18:27N 43°25' E 004°53'0 0.0
2017-Dec-10 17:54N 43°25' E 004°53'0 0.0
2017-Dec-10 16:51N 43°25' E 004°53'0 0.0
2017-Dec-10 16:27N 43°25' E 004°53'0 0.0
2017-Dec-10 15:58N 43°25' E 004°53'0 0.0
2017-Dec-10 15:21N 43°25' E 004°53'0 0.0
2017-Dec-10 14:10N 43°25' E 004°53'0 0.0
2017-Dec-10 13:39N 43°25' E 004°53'0 0.0
2017-Dec-10 13:15N 43°25' E 004°53'0 0.0
2017-Dec-10 13:00N 43°25' E 004°53'0 0.0
2017-Dec-10 12:21N 43°25' E 004°53'0 0.0
2017-Dec-10 11:57N 43°25' E 004°53'0 0.0
2017-Dec-10 11:30N 43°25' E 004°53'0 0.0
2017-Dec-10 11:00N 43°25' E 004°53'0 0.0
2017-Dec-10 10:30N 43°25' E 004°53'0 0.0
2017-Dec-10 09:57N 43°25' E 004°53'0 0.0
2017-Dec-10 09:30N 43°25' E 004°53'0 0.0
2017-Dec-10 08:57N 43°25' E 004°53'0 0.0
2017-Dec-10 08:30N 43°25' E 004°53'0 0.0
2017-Dec-10 07:57N 43°25' E 004°53'0 0.0
2017-Dec-10 07:30N 43°25' E 004°53'0 0.0
2017-Dec-10 07:00N 43°25' E 004°53'0 0.0
2017-Dec-10 06:30N 43°25' E 004°53'0 0.0
2017-Dec-10 06:01N 43°25' E 004°53'0 0.0
2017-Dec-10 05:30N 43°25' E 004°53'0 0.0
2017-Dec-10 05:00N 43°25' E 004°53'0 0.0
2017-Dec-10 04:31N 43°25' E 004°53'0 0.0
2017-Dec-10 04:00N 43°25' E 004°53'0 0.0
2017-Dec-10 03:30N 43°25' E 004°53'0 0.0
2017-Dec-10 02:57N 43°25' E 004°53'0 0.0
2017-Dec-10 02:30N 43°25' E 004°53'0 0.0
2017-Dec-10 02:00N 43°25' E 004°53'0 0.0
2017-Dec-10 01:30N 43°25' E 004°53'0 0.0
2017-Dec-10 01:00N 43°25' E 004°53'0 0.0
2017-Dec-10 00:30N 43°25' E 004°53'0 0.0
2017-Dec-10 00:00N 43°25' E 004°53'0 0.0
2017-Dec-09 23:30N 43°25' E 004°53'0 0.0
2017-Dec-09 23:00N 43°25' E 004°53'0 0.0
2017-Dec-09 22:30N 43°25' E 004°53'0 0.0
2017-Dec-09 22:00N 43°25' E 004°53'0 0.0
2017-Dec-09 21:30N 43°25' E 004°53'0 0.0
2017-Dec-09 21:00N 43°25' E 004°53'0 0.0
2017-Dec-09 20:27N 43°25' E 004°53'0 0.0
2017-Dec-09 20:01N 43°25' E 004°53'0 0.0
2017-Dec-09 19:30N 43°25' E 004°53'0 0.0
2017-Dec-09 18:57N 43°25' E 004°53'0 0.0
2017-Dec-09 18:30N 43°25' E 004°53'0 0.0
2017-Dec-09 18:00N 43°25' E 004°53'0 0.0
2017-Dec-09 17:30N 43°25' E 004°53'0 0.0
2017-Dec-09 17:00N 43°25' E 004°53'0 0.0
2017-Dec-09 16:30N 43°25' E 004°53'0 0.0
2017-Dec-09 16:00N 43°25' E 004°53'0 0.0
2017-Dec-09 15:30N 43°25' E 004°53'0 0.0
2017-Dec-09 15:00N 43°25' E 004°53'0 0.0
2017-Dec-09 14:24N 43°25' E 004°53'0 0.0
2017-Dec-09 14:00N 43°25' E 004°53'0 0.0
2017-Dec-09 13:30N 43°25' E 004°53'0 0.0
2017-Dec-09 13:00N 43°25' E 004°53'0 0.0
2017-Dec-09 12:30N 43°25' E 004°53'0 0.0
2017-Dec-09 12:00N 43°25' E 004°53'2 3.9
2017-Dec-09 11:30N 43°25' E 004°56'0 0.1
2017-Dec-09 11:00N 43°25' E 004°56'0 0.0
2017-Dec-09 10:30N 43°25' E 004°56'0 0.0
2017-Dec-09 10:00N 43°25' E 004°56'0 0.0
2017-Dec-09 09:27N 43°25' E 004°56'0 0.0
2017-Dec-09 09:00N 43°25' E 004°56'0 0.0
2017-Dec-09 08:30N 43°25' E 004°56'0 0.0
2017-Dec-09 07:57N 43°25' E 004°56'0 0.0
2017-Dec-09 07:27N 43°25' E 004°56'0 0.0
2017-Dec-09 07:00N 43°25' E 004°56'0 0.1
2017-Dec-09 06:30N 43°25' E 004°56'0 0.0
2017-Dec-09 06:00N 43°25' E 004°56'0 0.0
2017-Dec-09 05:30N 43°25' E 004°56'0 0.0
2017-Dec-09 05:00N 43°25' E 004°56'0 0.0
2017-Dec-09 04:30N 43°25' E 004°56'0 0.0
2017-Dec-09 04:00N 43°25' E 004°56'0 0.0
2017-Dec-09 03:30N 43°25' E 004°56'0 0.0
2017-Dec-09 03:00N 43°25' E 004°56'0 0.0
2017-Dec-09 02:30N 43°25' E 004°56'0 0.0
2017-Dec-09 02:00N 43°25' E 004°56'0 0.0
2017-Dec-09 01:30N 43°25' E 004°56'0 0.0
2017-Dec-09 01:00N 43°25' E 004°56'0 0.0
2017-Dec-09 00:30N 43°25' E 004°56'0 0.0
2017-Dec-09 00:00N 43°25' E 004°56'0 0.0
2017-Dec-08 23:30N 43°25' E 004°56'0 0.0
2017-Dec-08 23:00N 43°25' E 004°56'0 0.0
2017-Dec-08 22:30N 43°25' E 004°56'0 0.0
2017-Dec-08 22:00N 43°25' E 004°56'0 0.0
2017-Dec-08 21:30N 43°25' E 004°56'0 0.0
2017-Dec-08 21:00N 43°25' E 004°56'0 0.0
2017-Dec-08 20:30N 43°25' E 004°56'0 0.0
2017-Dec-08 20:00N 43°25' E 004°56'0 0.0
2017-Dec-08 19:30N 43°25' E 004°56'0 0.0
2017-Dec-08 18:57N 43°25' E 004°56'0 0.0
2017-Dec-08 18:30N 43°25' E 004°56'0 0.0
2017-Dec-08 18:00N 43°25' E 004°56'0 0.0
2017-Dec-08 17:30N 43°25' E 004°56'0 0.0
2017-Dec-08 16:54N 43°25' E 004°56'0 0.0
2017-Dec-08 16:30N 43°25' E 004°56'0 0.0
2017-Dec-08 16:00N 43°25' E 004°56'0 0.0
2017-Dec-08 15:27N 43°25' E 004°56'0 0.0
2017-Dec-08 15:00N 43°25' E 004°56'0 0.1
2017-Dec-08 14:30N 43°25' E 004°56'0 0.0
2017-Dec-08 13:57N 43°25' E 004°56'0 0.1
2017-Dec-08 13:30N 43°25' E 004°56'0 0.0
2017-Dec-08 13:00N 43°25' E 004°56'0 0.1
2017-Dec-08 12:30N 43°25' E 004°56'0 0.1
2017-Dec-08 12:00N 43°25' E 004°56'0 0.1
2017-Dec-08 11:30N 43°25' E 004°56'0 0.0
2017-Dec-08 11:00N 43°25' E 004°56'0 0.0
2017-Dec-08 10:30N 43°25' E 004°56'0 0.0
2017-Dec-08 10:00N 43°25' E 004°56'0 0.0
2017-Dec-08 09:30N 43°25' E 004°56'0 0.0
2017-Dec-08 09:00N 43°25' E 004°56'0 0.0
2017-Dec-08 08:30N 43°25' E 004°56'0 0.0
2017-Dec-08 08:00N 43°25' E 004°56'0 0.0
2017-Dec-08 07:30N 43°25' E 004°56'0 0.0
2017-Dec-08 07:00N 43°25' E 004°56'0 0.0
2017-Dec-08 06:30N 43°25' E 004°56'0 0.0
2017-Dec-08 06:00N 43°25' E 004°56'0 0.1
2017-Dec-08 05:30N 43°25' E 004°56'0 0.0
2017-Dec-08 05:00N 43°25' E 004°56'0 0.0
2017-Dec-08 04:30N 43°25' E 004°56'0 0.0
2017-Dec-08 04:00N 43°25' E 004°56'0 0.0
2017-Dec-08 03:30N 43°25' E 004°56'0 0.0
2017-Dec-08 02:57N 43°25' E 004°56'0 0.1
2017-Dec-08 02:30N 43°25' E 004°56'0 0.1
2017-Dec-08 02:00N 43°25' E 004°56'0 0.0
2017-Dec-08 01:30N 43°25' E 004°56'0 0.0
2017-Dec-08 01:00N 43°25' E 004°56'0 0.0
2017-Dec-08 00:30N 43°25' E 004°56'0 0.0
2017-Dec-08 00:00N 43°25' E 004°56'0 0.1
2017-Dec-07 23:30N 43°25' E 004°56'1 1.5
2017-Dec-07 23:00N 43°24' E 004°55'2 2.9
2017-Dec-07 22:29N 43°26' E 004°54'0 0.0
2017-Dec-07 21:59N 43°26' E 004°54'0 0.0
2017-Dec-07 21:29N 43°26' E 004°54'0 0.0
2017-Dec-07 20:56N 43°26' E 004°54'0 0.0
2017-Dec-07 20:29N 43°26' E 004°54'0 0.0
2017-Dec-07 19:59N 43°26' E 004°54'0 0.0
2017-Dec-07 19:26N 43°26' E 004°54'0 0.0
2017-Dec-07 18:59N 43°26' E 004°54'0 0.0
2017-Dec-07 18:29N 43°26' E 004°54'0 0.0
2017-Dec-07 17:59N 43°26' E 004°54'0 0.0
2017-Dec-07 17:29N 43°26' E 004°54'0 0.0
2017-Dec-07 16:59N 43°26' E 004°54'0 0.0
2017-Dec-07 16:26N 43°26' E 004°54'0 0.0
2017-Dec-07 15:59N 43°26' E 004°54'0 0.0
2017-Dec-07 15:29N 43°26' E 004°54'0 0.0
2017-Dec-07 14:59N 43°26' E 004°54'0 0.0
2017-Dec-07 14:29N 43°26' E 004°54'0 0.0
2017-Dec-07 13:59N 43°26' E 004°54'0 0.0
2017-Dec-07 13:23N 43°26' E 004°54'0 0.0
2017-Dec-07 12:59N 43°26' E 004°54'0 0.0
2017-Dec-07 12:26N 43°26' E 004°54'0 0.0
2017-Dec-07 11:59N 43°26' E 004°54'0 0.0
2017-Dec-07 11:29N 43°26' E 004°54'0 0.0
2017-Dec-07 10:59N 43°26' E 004°54'0 0.0
2017-Dec-07 10:29N 43°26' E 004°54'0 0.0
2017-Dec-07 09:53N 43°26' E 004°54'0 0.0
2017-Dec-07 09:29N 43°26' E 004°54'0 0.0
2017-Dec-07 08:59N 43°26' E 004°54'0 0.0
2017-Dec-07 08:29N 43°26' E 004°54'0 0.0
2017-Dec-07 07:59N 43°26' E 004°54'0 0.0
2017-Dec-07 07:29N 43°26' E 004°54'0 0.0
2017-Dec-07 06:59N 43°26' E 004°54'0 0.0
2017-Dec-07 06:29N 43°26' E 004°54'0 0.0
2017-Dec-07 05:59N 43°26' E 004°54'0 0.0
2017-Dec-07 05:29N 43°26' E 004°54'0 0.0
2017-Dec-07 04:59N 43°26' E 004°54'0 0.0
2017-Dec-07 04:29N 43°26' E 004°54'0 0.0
2017-Dec-07 03:59N 43°26' E 004°54'0 0.0
2017-Dec-07 03:29N 43°26' E 004°54'0 0.0
2017-Dec-07 02:59N 43°26' E 004°54'0 0.0
2017-Dec-07 02:29N 43°26' E 004°54'0 0.0
2017-Dec-07 01:59N 43°26' E 004°54'0 0.0
2017-Dec-07 01:29N 43°26' E 004°54'0 0.0
2017-Dec-07 01:00N 43°26' E 004°54'2 4.3
2017-Dec-07 00:30N 43°24' E 004°56'2 3.1
2017-Dec-07 00:00N 43°24' E 004°58'0 0.0
2017-Dec-06 23:27N 43°24' E 004°58'0 0.0
2017-Dec-06 23:00N 43°24' E 004°58'0 0.0
2017-Dec-06 22:30N 43°24' E 004°58'0 0.0
2017-Dec-06 22:00N 43°24' E 004°58'0 0.0
2017-Dec-06 21:30N 43°24' E 004°58'0 0.0
2017-Dec-06 21:00N 43°24' E 004°58'  
2017-Dec-03 18:21N 41°11' E 002°05'410.8
2017-Dec-03 18:01N 41°08' E 002°02'610.4
2017-Dec-03 17:27N 41°03' E 001°58'510.3
2017-Dec-03 16:59N 40°59' E 001°54'  
Track history (hours):
 
Tides and Currents Weather Stations Pressure Air Temp Water Temp Dewpoint Dewpoint Depression Visibility Wind Speed Wind Dir Waves Ship Positions

M/T Azra S

Last reported at 2017-Dec-11 16:59 UTC. Time now 2017-Dec-13 11:27 UTC.
Position N 43°24' E 004°55'.

Length 105 m; draft 6.7 m.

Type: Tanker. MMSI: 271000898.

Date/timePositionNaut miles runAvg speedWind from/ knotsBaromVisibWave heightAir tempDewpointWater temp
2017-Dec-11 16:59N 43°24' E 004°55'0 0.1
2017-Dec-11 16:29N 43°24' E 004°55'0 0.0
2017-Dec-11 15:59N 43°24' E 004°55'0 0.2
2017-Dec-11 15:29N 43°24' E 004°55'0 0.2
2017-Dec-11 15:00N 43°24' E 004°55'0 0.0
2017-Dec-11 14:30N 43°24' E 004°55'0 0.1
2017-Dec-11 14:00N 43°24' E 004°55'0 0.1
2017-Dec-11 13:26N 43°24' E 004°55'0 0.0
2017-Dec-11 12:54N 43°24' E 004°55'0 0.0
2017-Dec-11 12:30N 43°24' E 004°55'0 0.0
2017-Dec-11 12:00N 43°24' E 004°55'0 0.0
2017-Dec-11 11:29N 43°24' E 004°55'0 0.0
2017-Dec-11 10:59N 43°24' E 004°55'0 0.1
2017-Dec-11 10:30N 43°24' E 004°55'0 0.0
2017-Dec-11 09:59N 43°24' E 004°55'0 0.1
2017-Dec-11 09:24N 43°24' E 004°55'0 0.0
2017-Dec-11 09:00N 43°24' E 004°55'0 0.0
2017-Dec-11 08:29N 43°24' E 004°55'0 0.0
2017-Dec-11 08:00N 43°24' E 004°55'0 0.0
2017-Dec-11 07:20N 43°24' E 004°55'0 0.0
2017-Dec-11 07:00N 43°24' E 004°55'0 0.0
2017-Dec-11 06:30N 43°24' E 004°55'0 0.0
2017-Dec-11 05:59N 43°24' E 004°55'0 0.0
2017-Dec-11 05:30N 43°24' E 004°55'0 0.0
2017-Dec-11 05:00N 43°24' E 004°55'0 0.0
2017-Dec-11 04:30N 43°24' E 004°55'0 0.0
2017-Dec-11 04:00N 43°24' E 004°55'0 0.0
2017-Dec-11 03:30N 43°24' E 004°55'0 0.0
2017-Dec-11 02:57N 43°24' E 004°55'0 0.0
2017-Dec-11 02:29N 43°24' E 004°55'0 0.0
2017-Dec-11 01:57N 43°24' E 004°55'0 0.2
2017-Dec-11 01:30N 43°24' E 004°55'2 3.5
2017-Dec-11 01:00N 43°23' E 004°57'3 6.5
2017-Dec-11 00:30N 43°20' E 004°59'1 2.4
2017-Dec-11 00:00N 43°21' E 004°58'4 7.3
2017-Dec-10 23:30N 43°24' E 004°54'1 0.9
2017-Dec-10 22:09N 43°25' E 004°53'0 0.0
2017-Dec-10 21:51N 43°25' E 004°53'0 0.0
2017-Dec-10 21:27N 43°25' E 004°53'0 0.0
2017-Dec-10 20:58N 43°25' E 004°53'0 0.0
2017-Dec-10 20:27N 43°25' E 004°53'0 0.0
2017-Dec-10 19:51N 43°25' E 004°53'0 0.0
2017-Dec-10 19:27N 43°25' E 004°53'0 0.0
2017-Dec-10 18:42N 43°25' E 004°53'0 0.0
2017-Dec-10 18:27N 43°25' E 004°53'0 0.0
2017-Dec-10 17:54N 43°25' E 004°53'0 0.0
2017-Dec-10 16:51N 43°25' E 004°53'0 0.0
2017-Dec-10 16:27N 43°25' E 004°53'0 0.0
2017-Dec-10 15:58N 43°25' E 004°53'0 0.0
2017-Dec-10 15:21N 43°25' E 004°53'0 0.0
2017-Dec-10 14:10N 43°25' E 004°53'0 0.0
2017-Dec-10 13:39N 43°25' E 004°53'0 0.0
2017-Dec-10 13:15N 43°25' E 004°53'0 0.0
2017-Dec-10 13:00N 43°25' E 004°53'0 0.0
2017-Dec-10 12:21N 43°25' E 004°53'0 0.0
2017-Dec-10 11:57N 43°25' E 004°53'0 0.0
2017-Dec-10 11:30N 43°25' E 004°53'0 0.0
2017-Dec-10 11:00N 43°25' E 004°53'0 0.0
2017-Dec-10 10:30N 43°25' E 004°53'0 0.0
2017-Dec-10 09:57N 43°25' E 004°53'0 0.0
2017-Dec-10 09:30N 43°25' E 004°53'0 0.0
2017-Dec-10 08:57N 43°25' E 004°53'0 0.0
2017-Dec-10 08:30N 43°25' E 004°53'0 0.0
2017-Dec-10 07:57N 43°25' E 004°53'0 0.0
2017-Dec-10 07:30N 43°25' E 004°53'0 0.0
2017-Dec-10 07:00N 43°25' E 004°53'0 0.0
2017-Dec-10 06:30N 43°25' E 004°53'0 0.0
2017-Dec-10 06:01N 43°25' E 004°53'0 0.0
2017-Dec-10 05:30N 43°25' E 004°53'0 0.0
2017-Dec-10 05:00N 43°25' E 004°53'0 0.0
2017-Dec-10 04:31N 43°25' E 004°53'0 0.0
2017-Dec-10 04:00N 43°25' E 004°53'0 0.0
2017-Dec-10 03:30N 43°25' E 004°53'0 0.0
2017-Dec-10 02:57N 43°25' E 004°53'0 0.0
2017-Dec-10 02:30N 43°25' E 004°53'0 0.0
2017-Dec-10 02:00N 43°25' E 004°53'0 0.0
2017-Dec-10 01:30N 43°25' E 004°53'0 0.0
2017-Dec-10 01:00N 43°25' E 004°53'0 0.0
2017-Dec-10 00:30N 43°25' E 004°53'0 0.0
2017-Dec-10 00:00N 43°25' E 004°53'0 0.0
2017-Dec-09 23:30N 43°25' E 004°53'0 0.0
2017-Dec-09 23:00N 43°25' E 004°53'0 0.0
2017-Dec-09 22:30N 43°25' E 004°53'0 0.0
2017-Dec-09 22:00N 43°25' E 004°53'0 0.0
2017-Dec-09 21:30N 43°25' E 004°53'0 0.0
2017-Dec-09 21:00N 43°25' E 004°53'0 0.0
2017-Dec-09 20:27N 43°25' E 004°53'0 0.0
2017-Dec-09 20:01N 43°25' E 004°53'0 0.0
2017-Dec-09 19:30N 43°25' E 004°53'0 0.0
2017-Dec-09 18:57N 43°25' E 004°53'0 0.0
2017-Dec-09 18:30N 43°25' E 004°53'0 0.0
2017-Dec-09 18:00N 43°25' E 004°53'0 0.0
2017-Dec-09 17:30N 43°25' E 004°53'0 0.0
2017-Dec-09 17:00N 43°25' E 004°53'0 0.0
2017-Dec-09 16:30N 43°25' E 004°53'0 0.0
2017-Dec-09 16:00N 43°25' E 004°53'0 0.0
2017-Dec-09 15:30N 43°25' E 004°53'0 0.0
2017-Dec-09 15:00N 43°25' E 004°53'0 0.0
2017-Dec-09 14:24N 43°25' E 004°53'0 0.0
2017-Dec-09 14:00N 43°25' E 004°53'0 0.0
2017-Dec-09 13:30N 43°25' E 004°53'0 0.0
2017-Dec-09 13:00N 43°25' E 004°53'0 0.0
2017-Dec-09 12:30N 43°25' E 004°53'0 0.0
2017-Dec-09 12:00N 43°25' E 004°53'2 3.9
2017-Dec-09 11:30N 43°25' E 004°56'0 0.1
2017-Dec-09 11:00N 43°25' E 004°56'0 0.0
2017-Dec-09 10:30N 43°25' E 004°56'0 0.0
2017-Dec-09 10:00N 43°25' E 004°56'0 0.0
2017-Dec-09 09:27N 43°25' E 004°56'0 0.0
2017-Dec-09 09:00N 43°25' E 004°56'0 0.0
2017-Dec-09 08:30N 43°25' E 004°56'0 0.0
2017-Dec-09 07:57N 43°25' E 004°56'0 0.0
2017-Dec-09 07:27N 43°25' E 004°56'0 0.0
2017-Dec-09 07:00N 43°25' E 004°56'0 0.1
2017-Dec-09 06:30N 43°25' E 004°56'0 0.0
2017-Dec-09 06:00N 43°25' E 004°56'0 0.0
2017-Dec-09 05:30N 43°25' E 004°56'0 0.0
2017-Dec-09 05:00N 43°25' E 004°56'0 0.0
2017-Dec-09 04:30N 43°25' E 004°56'0 0.0
2017-Dec-09 04:00N 43°25' E 004°56'0 0.0
2017-Dec-09 03:30N 43°25' E 004°56'0 0.0
2017-Dec-09 03:00N 43°25' E 004°56'0 0.0
2017-Dec-09 02:30N 43°25' E 004°56'0 0.0
2017-Dec-09 02:00N 43°25' E 004°56'0 0.0
2017-Dec-09 01:30N 43°25' E 004°56'0 0.0
2017-Dec-09 01:00N 43°25' E 004°56'0 0.0
2017-Dec-09 00:30N 43°25' E 004°56'0 0.0
2017-Dec-09 00:00N 43°25' E 004°56'0 0.0
2017-Dec-08 23:30N 43°25' E 004°56'0 0.0
2017-Dec-08 23:00N 43°25' E 004°56'0 0.0
2017-Dec-08 22:30N 43°25' E 004°56'0 0.0
2017-Dec-08 22:00N 43°25' E 004°56'0 0.0
2017-Dec-08 21:30N 43°25' E 004°56'0 0.0
2017-Dec-08 21:00N 43°25' E 004°56'0 0.0
2017-Dec-08 20:30N 43°25' E 004°56'0 0.0
2017-Dec-08 20:00N 43°25' E 004°56'0 0.0
2017-Dec-08 19:30N 43°25' E 004°56'0 0.0
2017-Dec-08 18:57N 43°25' E 004°56'0 0.0
2017-Dec-08 18:30N 43°25' E 004°56'0 0.0
2017-Dec-08 18:00N 43°25' E 004°56'0 0.0
2017-Dec-08 17:30N 43°25' E 004°56'0 0.0
2017-Dec-08 16:54N 43°25' E 004°56'0 0.0
2017-Dec-08 16:30N 43°25' E 004°56'0 0.0
2017-Dec-08 16:00N 43°25' E 004°56'0 0.0
2017-Dec-08 15:27N 43°25' E 004°56'0 0.0
2017-Dec-08 15:00N 43°25' E 004°56'0 0.1
2017-Dec-08 14:30N 43°25' E 004°56'0 0.0
2017-Dec-08 13:57N 43°25' E 004°56'0 0.1
2017-Dec-08 13:30N 43°25' E 004°56'0 0.0
2017-Dec-08 13:00N 43°25' E 004°56'0 0.1
2017-Dec-08 12:30N 43°25' E 004°56'0 0.1
2017-Dec-08 12:00N 43°25' E 004°56'0 0.1
2017-Dec-08 11:30N 43°25' E 004°56'0 0.0
2017-Dec-08 11:00N 43°25' E 004°56'0 0.0
2017-Dec-08 10:30N 43°25' E 004°56'0 0.0
2017-Dec-08 10:00N 43°25' E 004°56'0 0.0
2017-Dec-08 09:30N 43°25' E 004°56'0 0.0
2017-Dec-08 09:00N 43°25' E 004°56'0 0.0
2017-Dec-08 08:30N 43°25' E 004°56'0 0.0
2017-Dec-08 08:00N 43°25' E 004°56'0 0.0
2017-Dec-08 07:30N 43°25' E 004°56'0 0.0
2017-Dec-08 07:00N 43°25' E 004°56'0 0.0
2017-Dec-08 06:30N 43°25' E 004°56'0 0.0
2017-Dec-08 06:00N 43°25' E 004°56'0 0.1
2017-Dec-08 05:30N 43°25' E 004°56'0 0.0
2017-Dec-08 05:00N 43°25' E 004°56'0 0.0
2017-Dec-08 04:30N 43°25' E 004°56'0 0.0
2017-Dec-08 04:00N 43°25' E 004°56'0 0.0
2017-Dec-08 03:30N 43°25' E 004°56'0 0.0
2017-Dec-08 02:57N 43°25' E 004°56'0 0.1
2017-Dec-08 02:30N 43°25' E 004°56'0 0.1
2017-Dec-08 02:00N 43°25' E 004°56'0 0.0
2017-Dec-08 01:30N 43°25' E 004°56'0 0.0
2017-Dec-08 01:00N 43°25' E 004°56'0 0.0
2017-Dec-08 00:30N 43°25' E 004°56'0 0.0
2017-Dec-08 00:00N 43°25' E 004°56'0 0.1
2017-Dec-07 23:30N 43°25' E 004°56'1 1.5
2017-Dec-07 23:00N 43°24' E 004°55'2 2.9
2017-Dec-07 22:29N 43°26' E 004°54'0 0.0
2017-Dec-07 21:59N 43°26' E 004°54'0 0.0
2017-Dec-07 21:29N 43°26' E 004°54'0 0.0
2017-Dec-07 20:56N 43°26' E 004°54'0 0.0
2017-Dec-07 20:29N 43°26' E 004°54'0 0.0
2017-Dec-07 19:59N 43°26' E 004°54'0 0.0
2017-Dec-07 19:26N 43°26' E 004°54'0 0.0
2017-Dec-07 18:59N 43°26' E 004°54'0 0.0
2017-Dec-07 18:29N 43°26' E 004°54'0 0.0
2017-Dec-07 17:59N 43°26' E 004°54'0 0.0
2017-Dec-07 17:29N 43°26' E 004°54'0 0.0
2017-Dec-07 16:59N 43°26' E 004°54'0 0.0
2017-Dec-07 16:26N 43°26' E 004°54'0 0.0
2017-Dec-07 15:59N 43°26' E 004°54'0 0.0
2017-Dec-07 15:29N 43°26' E 004°54'0 0.0
2017-Dec-07 14:59N 43°26' E 004°54'0 0.0
2017-Dec-07 14:29N 43°26' E 004°54'0 0.0
2017-Dec-07 13:59N 43°26' E 004°54'0 0.0
2017-Dec-07 13:23N 43°26' E 004°54'0 0.0
2017-Dec-07 12:59N 43°26' E 004°54'0 0.0
2017-Dec-07 12:26N 43°26' E 004°54'0 0.0
2017-Dec-07 11:59N 43°26' E 004°54'0 0.0
2017-Dec-07 11:29N 43°26' E 004°54'0 0.0
2017-Dec-07 10:59N 43°26' E 004°54'0 0.0
2017-Dec-07 10:29N 43°26' E 004°54'0 0.0
2017-Dec-07 09:53N 43°26' E 004°54'0 0.0
2017-Dec-07 09:29N 43°26' E 004°54'0 0.0
2017-Dec-07 08:59N 43°26' E 004°54'0 0.0
2017-Dec-07 08:29N 43°26' E 004°54'0 0.0
2017-Dec-07 07:59N 43°26' E 004°54'0 0.0
2017-Dec-07 07:29N 43°26' E 004°54'0 0.0
2017-Dec-07 06:59N 43°26' E 004°54'0 0.0
2017-Dec-07 06:29N 43°26' E 004°54'0 0.0
2017-Dec-07 05:59N 43°26' E 004°54'0 0.0
2017-Dec-07 05:29N 43°26' E 004°54'0 0.0
2017-Dec-07 04:59N 43°26' E 004°54'0 0.0
2017-Dec-07 04:29N 43°26' E 004°54'0 0.0
2017-Dec-07 03:59N 43°26' E 004°54'0 0.0
2017-Dec-07 03:29N 43°26' E 004°54'0 0.0
2017-Dec-07 02:59N 43°26' E 004°54'0 0.0
2017-Dec-07 02:29N 43°26' E 004°54'0 0.0
2017-Dec-07 01:59N 43°26' E 004°54'0 0.0
2017-Dec-07 01:29N 43°26' E 004°54'0 0.0
2017-Dec-07 01:00N 43°26' E 004°54'2 4.3
2017-Dec-07 00:30N 43°24' E 004°56'2 3.1
2017-Dec-07 00:00N 43°24' E 004°58'0 0.0
2017-Dec-06 23:27N 43°24' E 004°58'0 0.0
2017-Dec-06 23:00N 43°24' E 004°58'0 0.0
2017-Dec-06 22:30N 43°24' E 004°58'0 0.0
2017-Dec-06 22:00N 43°24' E 004°58'0 0.0
2017-Dec-06 21:30N 43°24' E 004°58'0 0.0
2017-Dec-06 21:00N 43°24' E 004°58'  
2017-Dec-03 18:21N 41°11' E 002°05'410.8
2017-Dec-03 18:01N 41°08' E 002°02'610.4
2017-Dec-03 17:27N 41°03' E 001°58'510.3
2017-Dec-03 16:59N 40°59' E 001°54'  

Dump ship's entire track history